Time;durP1;ratioP1;P1;durP2;ratioP2;P2;SDS_P1;SDS_P2;PMS_P1;PMS_P2;Temp;Humidity;BMP_temperature;BMP_pressure;BME280_temperature;BME280_humidity;BME280_pressure;Samples;Min_cycle;Max_cycle;Signal;HPM_P1;HPM_P2
2022/09/07 00:05:46;;;;;;;3.67;3.25;;;;;;;19.11;93.58;100846.50;20712694;28;20052;-75
2022/09/07 00:15:47;;;;;;;3.58;3.05;;;;;;;19.36;93.68;100884.66;20711909;28;20491;-75
2022/09/07 00:25:49;;;;;;;3.17;2.85;;;;;;;19.36;93.88;100905.38;20710784;28;20526;-74
2022/09/07 00:35:56;;;;;;;3.90;3.30;;;;;;;19.36;93.91;100924.28;20722353;28;20108;-74
2022/09/07 00:45:59;;;;;;;3.58;3.28;;;;;;;19.24;93.84;100924.44;20725033;28;20057;-74
2022/09/07 00:56:01;;;;;;;3.15;2.80;;;;;;;19.12;94.11;101074.88;20724144;28;20056;-74
2022/09/07 01:06:08;;;;;;;3.40;3.10;;;;;;;19.35;94.21;101119.63;20723991;28;20049;-74
2022/09/07 01:16:30;;;;;;;3.42;3.08;;;;;;;19.34;94.15;101140.41;20708770;28;20509;-74
2022/09/07 01:26:46;;;;;;;3.05;2.78;;;;;;;19.33;94.13;101103.59;20802981;28;20056;-74
2022/09/07 01:36:56;;;;;;;3.33;2.92;;;;;;;19.32;94.10;101114.53;20803245;28;20052;-74
2022/09/07 01:47:01;;;;;;;3.10;2.80;;;;;;;19.15;94.12;101043.19;20784995;28;20498;-74
2022/09/07 01:57:13;;;;;;;3.25;2.95;;;;;;;19.20;94.60;100993.19;20684835;28;20046;-74
2022/09/07 02:07:29;;;;;;;3.08;2.78;;;;;;;19.15;94.06;100963.09;20700127;28;20514;-74
2022/09/07 02:17:42;;;;;;;3.03;2.72;;;;;;;19.31;94.01;100940.06;20703111;28;20065;-74
2022/09/07 02:27:50;;;;;;;3.47;2.70;;;;;;;19.29;93.83;100953.72;20715408;28;20049;-74
2022/09/07 02:37:52;;;;;;;3.47;3.03;;;;;;;19.21;93.85;100951.72;20748047;28;20046;-74
2022/09/07 02:48:06;;;;;;;3.35;2.97;;;;;;;19.19;93.79;100913.25;20779528;28;20041;-75
2022/09/07 02:58:40;;;;;;;3.10;2.70;;;;;;;19.27;94.10;100916.06;20777891;28;20037;-74
2022/09/07 03:08:48;;;;;;;3.15;2.88;;;;;;;19.28;93.85;100896.16;20695474;28;20049;-74
2022/09/07 03:18:49;;;;;;;3.58;3.10;;;;;;;19.26;93.92;100868.47;20765388;28;20053;-74
2022/09/07 03:28:51;;;;;;;3.63;3.33;;;;;;;19.26;94.01;100868.47;20794483;28;20513;-75
2022/09/07 03:38:53;;;;;;;3.42;3.13;;;;;;;19.26;94.15;100878.44;20794160;28;20537;-74
2022/09/07 03:48:55;;;;;;;3.63;2.78;;;;;;;19.26;93.98;100865.78;20776027;28;20042;-74
2022/09/07 03:58:57;;;;;;;3.30;2.95;;;;;;;19.25;94.11;100838.94;20776767;28;20128;-74
2022/09/07 04:09:07;;;;;;;3.53;2.88;;;;;;;19.09;93.98;100807.19;20803327;28;20049;-75
2022/09/07 04:19:08;;;;;;;3.15;2.85;;;;;;;19.07;93.79;100811.88;20810404;28;20107;-74
2022/09/07 04:29:10;;;;;;;3.35;3.00;;;;;;;19.24;94.21;100818.34;20786632;28;20132;-75
2022/09/07 04:39:12;;;;;;;3.28;2.97;;;;;;;19.04;94.46;100820.25;20780963;28;20634;-75
2022/09/07 04:49:13;;;;;;;3.22;2.70;;;;;;;19.30;95.19;100838.50;20749130;28;20064;-76
2022/09/07 04:59:15;;;;;;;3.88;2.90;;;;;;;19.32;95.46;100841.88;20708243;28;20069;-75
2022/09/07 05:09:16;;;;;;;3.28;2.92;;;;;;;18.87;95.79;100768.72;20706286;28;20057;-76
2022/09/07 05:19:18;;;;;;;3.97;2.70;;;;;;;19.26;95.39;100870.34;20704618;28;20049;-75
2022/09/07 05:29:20;;;;;;;3.28;2.58;;;;;;;19.36;95.63;100894.59;20722112;28;20060;-76
2022/09/07 05:39:41;;;;;;;3.72;3.33;;;;;;;19.38;95.60;100876.38;20720269;28;20050;-76
2022/09/07 05:49:43;;;;;;;4.90;2.88;;;;;;;19.37;95.78;100880.94;20723431;28;20054;-76
2022/09/07 05:59:45;;;;;;;4.88;2.95;;;;;;;19.38;95.92;100879.97;20723584;28;20050;-76
2022/09/07 06:09:46;;;;;;;3.10;2.70;;;;;;;19.18;95.76;100862.97;20714802;28;20049;-75
2022/09/07 06:20:08;;;;;;;3.22;2.60;;;;;;;19.39;95.68;100895.16;20713872;28;20112;-75
2022/09/07 06:30:11;;;;;;;3.10;2.80;;;;;;;19.26;95.80;100871.16;20701603;28;20037;-75
2022/09/07 06:40:12;;;;;;;5.20;2.88;;;;;;;19.41;95.49;100903.09;20719271;28;20064;-76
2022/09/07 06:50:16;;;;;;;2.90;2.70;;;;;;;19.28;95.30;100898.88;20700171;28;20054;-76
2022/09/07 07:00:17;;;;;;;3.20;2.90;;;;;;;19.41;95.59;100922.84;20779998;28;20449;-76
2022/09/07 07:10:19;;;;;;;3.80;3.10;;;;;;;19.42;95.44;100921.00;20779337;28;20052;-76
2022/09/07 07:20:25;;;;;;;3.40;2.97;;;;;;;19.28;95.25;100893.47;20755033;28;20113;-75
2022/09/07 07:30:27;;;;;;;3.72;2.95;;;;;;;19.42;95.59;100921.00;20711196;28;20045;-76
2022/09/07 07:40:28;;;;;;;3.58;3.28;;;;;;;19.04;95.41;100887.72;20712039;28;20819;-75
2022/09/07 07:50:33;;;;;;;3.75;3.22;;;;;;;19.30;95.41;100927.56;20714316;28;20061;-75
2022/09/07 08:00:35;;;;;;;3.20;2.90;;;;;;;19.42;95.50;100961.47;20706508;28;20100;-74
2022/09/07 08:10:54;;;;;;;3.28;2.97;;;;;;;19.32;95.38;100947.16;20685668;28;20046;-74
2022/09/07 08:21:01;;;;;;;2.95;2.72;;;;;;;19.38;95.30;100968.16;20724435;28;20494;-74
2022/09/07 08:31:06;;;;;;;2.60;2.28;;;;;;;19.35;95.68;100961.22;20755211;28;20516;-75
2022/09/07 08:41:36;;;;;;;2.90;2.60;;;;;;;19.34;97.14;100974.84;20750306;28;20056;-75
2022/09/07 08:51:43;;;;;;;3.47;2.38;;;;;;;19.35;97.76;100987.34;20668479;28;20645;-75
2022/09/07 09:01:44;;;;;;;4.05;2.70;;;;;;;19.10;97.93;100941.09;20720221;28;20135;-74
2022/09/07 09:12:20;;;;;;;4.18;3.00;;;;;;;19.39;99.07;101007.66;20746303;28;20139;-75
2022/09/07 09:22:25;;;;;;;3.25;2.95;;;;;;;19.22;99.38;100972.31;20729049;28;20058;-75
2022/09/07 09:32:32;;;;;;;3.38;2.92;;;;;;;19.39;99.76;100997.75;20692924;28;20060;-75
2022/09/07 09:42:35;;;;;;;4.82;3.10;;;;;;;19.40;100.00;100994.03;20697333;28;20054;-75
2022/09/07 09:52:36;;;;;;;4.32;2.63;;;;;;;19.42;99.99;101001.97;20687678;28;20120;-74
2022/09/07 10:03:16;;;;;;;4.68;2.80;;;;;;;19.41;100.00;101002.97;20694144;28;20445;-75
2022/09/07 10:13:53;;;;;;;3.60;2.65;;;;;;;19.42;100.00;101001.97;20733469;28;20057;-75
2022/09/07 10:23:59;;;;;;;4.22;2.78;;;;;;;19.31;100.00;100970.63;20703601;28;20193;-75
2022/09/07 10:34:13;;;;;;;3.08;2.70;;;;;;;19.44;100.00;100988.34;20682674;28;20049;-75
2022/09/07 10:44:30;;;;;;;3.95;3.03;;;;;;;19.45;100.00;100985.53;20690997;28;20077;-75
2022/09/07 10:54:50;;;;;;;4.47;2.60;;;;;;;19.47;100.00;100996.16;20699142;28;20046;-75
2022/09/07 11:05:00;;;;;;;2.58;2.35;;;;;;;19.37;100.00;100961.06;20680912;28;20095;-75
2022/09/07 11:15:11;;;;;;;3.25;2.08;;;;;;;19.49;100.00;100969.88;20675286;28;20056;-75
2022/09/07 11:25:20;;;;;;;2.47;2.00;;;;;;;19.53;100.00;100965.88;20667476;28;20041;-75
2022/09/07 11:36:21;;;;;;;3.30;1.97;;;;;;;19.60;100.00;100969.69;20662581;28;20192;-75
2022/09/07 11:46:39;;;;;;;2.30;1.70;;;;;;;19.67;100.00;100964.56;20672797;28;20058;-75
2022/09/07 11:57:05;;;;;;;1.92;1.50;;;;;;;19.71;100.00;100960.56;20695820;28;20050;-75
2022/09/07 12:07:16;;;;;;;1.73;1.45;;;;;;;19.77;100.00;100959.97;20731984;28;20066;-76
2022/09/07 12:17:30;;;;;;;1.85;1.10;;;;;;;19.80;100.00;100956.16;20724032;28;20690;-75
2022/09/07 12:27:31;;;;;;;2.25;1.70;;;;;;;19.82;100.00;100957.69;20744761;28;20088;-75
2022/09/07 12:37:38;;;;;;;1.95;1.30;;;;;;;19.78;100.00;100967.09;20738314;28;20131;-75
2022/09/07 12:47:40;;;;;;;1.23;1.13;;;;;;;19.61;100.00;100916.56;20725394;28;20053;-75
2022/09/07 12:57:55;;;;;;;1.65;1.30;;;;;;;19.86;100.00;100942.03;20733538;28;20053;-75
2022/09/07 13:08:24;;;;;;;1.67;1.30;;;;;;;19.87;100.00;100932.94;20678742;28;20054;-74
2022/09/07 13:18:26;;;;;;;1.30;1.17;;;;;;;19.87;100.00;100932.94;20665937;28;20069;-75
2022/09/07 13:28:32;;;;;;;1.73;1.25;;;;;;;19.69;100.00;100914.81;20728746;28;20494;-76
2022/09/07 13:38:35;;;;;;;5.03;1.23;;;;;;;19.84;100.00;100927.84;20707026;28;20057;-76
2022/09/07 13:48:48;;;;;;;1.83;1.27;;;;;;;19.65;100.00;100890.94;20645314;28;20076;-76
2022/09/07 13:58:50;;;;;;;1.40;1.02;;;;;;;19.82;100.00;100908.22;20655151;28;20049;-75
2022/09/07 14:09:17;;;;;;;1.50;1.10;;;;;;;19.81;100.00;100896.56;20677688;28;20482;-76
2022/09/07 14:19:41;;;;;;;1.55;1.27;;;;;;;19.82;100.00;100902.81;20681718;28;20061;-74
2022/09/07 14:29:43;;;;;;;1.60;1.10;;;;;;;19.63;100.00;100860.53;20679273;28;20099;-75
2022/09/07 14:39:47;;;;;;;1.50;1.17;;;;;;;19.84;100.00;100898.13;20656579;28;20061;-75
2022/09/07 14:49:52;;;;;;;2.90;1.20;;;;;;;19.70;100.00;100867.03;20663295;28;20133;-75
2022/09/07 14:59:57;;;;;;;2.38;1.40;;;;;;;19.84;100.00;100887.31;20679365;28;20069;-74
2022/09/07 15:10:21;;;;;;;1.90;1.17;;;;;;;19.80;100.00;100889.44;20676888;28;20053;-74
2022/09/07 15:20:30;;;;;;;1.40;1.20;;;;;;;19.76;100.00;100869.13;20748781;28;20410;-78
2022/09/07 15:30:32;;;;;;;1.00;1.00;;;;;;;19.48;100.00;100831.34;20742341;28;20577;-75
2022/09/07 15:40:41;;;;;;;2.05;1.15;;;;;;;19.50;100.00;100840.13;20743935;28;20072;-75
2022/09/07 15:51:06;;;;;;;2.20;1.13;;;;;;;19.68;100.00;100879.84;20741572;28;20052;-76
2022/09/07 16:01:28;;;;;;;1.55;0.93;;;;;;;19.63;100.00;100868.63;20703108;28;20052;-74
2022/09/07 16:11:49;;;;;;;2.10;1.13;;;;;;;19.68;100.00;100887.94;20713348;28;20553;-74
2022/09/07 16:21:51;;;;;;;1.52;1.17;;;;;;;19.65;100.00;100899.03;20719576;28;20045;-74
2022/09/07 16:31:58;;;;;;;2.72;1.23;;;;;;;19.66;100.00;100889.94;20663472;28;20054;-74
2022/09/07 16:42:19;;;;;;;1.95;1.20;;;;;;;19.65;100.00;100894.47;20717407;28;20050;-74
2022/09/07 16:52:22;;;;;;;1.73;1.00;;;;;;;19.57;100.00;100888.97;20757238;28;20049;-75
2022/09/07 17:02:23;;;;;;;1.13;0.80;;;;;;;19.64;100.00;100886.53;20686549;28;20108;-75
2022/09/07 17:12:25;;;;;;;1.10;1.00;;;;;;;19.45;100.00;100857.75;20642470;28;20041;-75
2022/09/07 17:22:26;;;;;;;1.88;0.90;;;;;;;19.62;100.00;100875.03;20676828;28;20058;-75
2022/09/07 17:32:31;;;;;;;1.52;0.93;;;;;;;19.61;100.00;100863.38;20739477;28;20057;-75
2022/09/07 17:42:32;;;;;;;1.13;1.00;;;;;;;19.55;100.00;100842.38;20751765;28;20064;-75
2022/09/07 17:52:54;;;;;;;2.10;0.93;;;;;;;19.61;100.00;100862.53;20656425;28;20526;-75
2022/09/07 18:02:56;;;;;;;1.55;0.98;;;;;;;19.59;100.00;100859.97;20667973;28;20112;-75
2022/09/07 18:12:59;;;;;;;1.10;1.00;;;;;;;19.58;100.00;100858.28;20674871;28;20058;-75
2022/09/07 18:23:04;;;;;;;1.30;0.90;;;;;;;19.45;100.00;100836.16;20676579;28;20061;-74
2022/09/07 18:33:06;;;;;;;0.88;0.80;;;;;;;19.56;100.00;100865.66;20681654;28;20054;-75
2022/09/07 18:43:08;;;;;;;1.80;0.88;;;;;;;19.62;100.00;100877.75;20677298;28;20108;-76
2022/09/07 18:53:10;;;;;;;2.22;0.90;;;;;;;19.62;100.00;100880.44;20683824;28;20181;-75
2022/09/07 19:03:17;;;;;;;1.00;0.85;;;;;;;19.61;100.00;100881.44;20688175;28;20279;-75
2022/09/07 19:13:18;;;;;;;1.63;0.80;;;;;;;19.56;100.00;100868.38;20683496;28;20505;-75
2022/09/07 19:23:20;;;;;;;1.35;0.70;;;;;;;19.58;100.00;100868.25;20679337;28;20056;-76
2022/09/07 19:33:21;;;;;;;0.90;0.65;;;;;;;19.28;100.00;100814.34;20714954;28;20506;-76
2022/09/07 19:43:23;;;;;;;0.65;0.65;;;;;;;19.47;100.00;100837.72;20714117;28;20538;-75
2022/09/07 19:53:25;;;;;;;1.60;0.98;;;;;;;19.54;100.00;100836.13;20711196;28;20069;-76
2022/09/07 20:03:26;;;;;;;1.25;0.57;;;;;;;19.53;100.00;100839.84;20711870;28;20042;-76
2022/09/07 20:13:28;;;;;;;0.63;0.63;;;;;;;19.46;100.00;100827.94;20713197;28;20360;-76
2022/09/07 20:23:31;;;;;;;0.85;0.70;;;;;;;19.47;100.00;100834.16;20713004;28;20054;-76
2022/09/07 20:33:33;;;;;;;1.58;0.70;;;;;;;19.52;100.00;100835.44;20792995;28;20041;-76
2022/09/07 20:43:34;;;;;;;1.17;0.70;;;;;;;19.52;100.00;100816.53;20791070;28;20413;-76
2022/09/07 20:53:36;;;;;;;0.70;0.55;;;;;;;19.51;100.00;100825.63;20804058;28;20053;-80
2022/09/07 21:03:38;;;;;;;0.70;0.50;;;;;;;19.32;100.00;100787.91;20808013;28;20061;-76
2022/09/07 21:13:40;;;;;;;0.80;0.60;;;;;;;19.50;100.00;100818.53;20789961;28;20075;-75
2022/09/07 21:23:42;;;;;;;1.15;0.70;;;;;;;19.49;100.00;100810.56;20804746;28;20380;-76
2022/09/07 21:33:43;;;;;;;0.73;0.70;;;;;;;19.50;100.00;100812.25;20805698;28;20080;-75
2022/09/07 21:43:45;;;;;;;0.75;0.70;;;;;;;19.50;100.00;100804.16;20804642;28;20047;-76
2022/09/07 21:53:54;;;;;;;0.70;0.70;;;;;;;19.48;100.00;100804.34;20803985;28;20134;-76
2022/09/07 22:03:57;;;;;;;1.38;0.93;;;;;;;19.49;100.00;100815.97;20801725;28;20072;-76
2022/09/07 22:14:01;;;;;;;1.00;0.70;;;;;;;19.48;100.00;100793.53;20719472;28;20053;-76
2022/09/07 22:24:04;;;;;;;1.45;0.70;;;;;;;19.47;100.00;100781.03;20720492;28;20558;-76
2022/09/07 22:34:07;;;;;;;1.25;0.70;;;;;;;19.46;100.00;100790.13;20701869;28;20053;-76
2022/09/07 22:44:11;;;;;;;1.00;0.70;;;;;;;19.45;100.00;100774.94;20700267;28;20053;-76
2022/09/07 22:54:12;;;;;;;0.65;0.65;;;;;;;19.45;100.00;100783.03;20718260;28;20141;-76
2022/09/07 23:04:14;;;;;;;1.23;0.70;;;;;;;19.44;100.00;100759.72;20715113;28;20514;-76
2022/09/07 23:14:19;;;;;;;0.50;0.50;;;;;;;19.44;100.00;100759.72;20715528;28;20049;-76
2022/09/07 23:24:20;;;;;;;1.03;0.90;;;;;;;19.44;100.00;100730.00;20716131;28;20180;-76
2022/09/07 23:34:21;;;;;;;0.88;0.77;;;;;;;19.35;100.00;100717.44;20714336;28;20057;-75
2022/09/07 23:44:23;;;;;;;0.80;0.70;;;;;;;19.43;100.00;100720.22;20714245;28;20054;-75
2022/09/07 23:54:24;;;;;;;1.52;1.00;;;;;;;19.26;100.00;100679.53;20712906;28;20049;-76
